x

Ilm3 - 27 Miles Se Of Wrightsville Beach, Nc (41037) Weather Station

2:00pm - Wed 20th Aug 2014 All times are EDT. -4 hours from GMT.

  • Wind
    7mph, 9mph gusts
  • Sea Temp 84°f
  • Air Temp 79°f
  • Sea Pressure 1015.3mb
  • Ilm3 - 27 Miles Se Of Wrightsville Beach, Nc
  • Ilm3 - 27 Miles Se Of Wrightsville Beach, Nc

More Historic Weather Station data

Upgrade to MSW Pro to gain access to the past 30 days of data for over 8000 Wavebouys and Weather Stations around the globe.

Join Pro

Comparision Forecast

View Surf forecast
   
Wed 08/20 2:00pm 7 9 mph 1015.3mb 84f 79f
1:00pm 2 4 mph 1015.6mb 83f 79f
12:00pm 2 4 mph 1015.8mb 83f 78f
11:00am 4 7 mph 1015.6mb 83f 77f
10:00am 9 11 mph 1014.7mb 82f 77f
9:00am 7 9 mph 1013.9mb 82f 76f
8:00am 11 13 mph 1013.4mb 82f 76f
7:00am 11 13 mph 1012.9mb 82f 76f
6:00am 13 16 mph 1012.2mb 82f 76f
5:00am 16 18 mph 1011.7mb 82f 76f
4:00am 16 18 mph 1011.2mb 82f 76f
3:00am 13 16 mph 1011mb 82f 76f
2:00am 13
mph
1011.2mb 82f 77f
1:00am 9 11 mph 1011mb 82f 76f
12:00am 4 7 mph 1011.3mb 82f 75f
Tue 08/19 11:00pm 4 7 mph 1011.1mb 82f 76f
10:00pm 7
mph
1011.4mb 82f 75f
9:00pm 22 27 mph 1011.3mb 82f 74f
8:00pm 20 25 mph 1010.2mb 82f 79f
7:00pm 20 25 mph 1009.3mb 82f 79f
6:00pm 16 18 mph 1009.7mb 83f 80f
5:00pm 20 22 mph 1009.5mb 83f 79f
4:00pm 18 25 mph 1009.8mb 83f 79f
3:00pm 18 22 mph 1010.1mb 82f 79f
2:00pm 18 20 mph 1010.6mb 82f 79f
1:00pm 16 18 mph 1010.9mb 82f 78f
12:00pm 16 20 mph 1011.4mb 82f 78f
11:00am 13 16 mph 1011.2mb 82f 78f
10:00am 16 18 mph 1010.9mb 82f 78f
9:00am 18 20 mph 1009.9mb 82f 78f
8:00am 22 25 mph 1009.7mb 82f 78f
7:00am 20 22 mph 1009.4mb 82f 79f
6:00am 22 25 mph 1009.1mb 82f 78f
5:00am 22 25 mph 1009.1mb 82f 78f
4:00am 20 22 mph 1009mb 82f 77f
3:00am 16 20 mph 1008.8mb 82f 77f
2:00am 13 16 mph 1010mb 82f 78f
1:00am 7 9 mph 1011.2mb 82f 78f
12:00am 18 20 mph 1010.9mb 82f 78f
Mon 08/18 11:00pm 22 25 mph 1010.2mb 82f 80f
10:00pm 25 27 mph 1010.9mb 82f 79f
9:00pm 22 25 mph 1009.4mb 82f 79f
8:00pm 22 27 mph 1009.5mb 82f 79f
7:00pm 20 22 mph 1009.9mb 82f 79f
6:00pm 20 22 mph 1009.9mb 82f 79f
5:00pm 20 22 mph 1009.8mb 82f 79f
4:00pm 20 22 mph 1010.2mb 82f 79f
3:00pm 20 22 mph 1010.9mb 82f 79f
2:00pm 18 22 mph 1012.4mb 82f 79f
1:00pm 16 20 mph 1012.8mb 82f 79f
12:00pm 16 18 mph 1012.9mb 82f 79f
11:00am 11 16 mph 1013.6mb 82f 79f
10:00am 11 16 mph 1013.6mb 82f 79f
9:00am 11 13 mph 1013.7mb 82f 79f
8:00am 9 11 mph 1013.7mb 82f 79f
7:00am 7 9 mph 1013.8mb 82f 79f
6:00am 9 11 mph 1013.7mb 82f 79f
5:00am 13 16 mph 1013.4mb 82f 79f
4:00am 16 18 mph 1013.5mb 82f 79f
3:00am 16 18 mph 1013.5mb 82f 79f
2:00am 13 18 mph 1013.8mb 82f 79f
1:00am 16 18 mph 1014.5mb 82f 79f
12:00am 13 16 mph 1014.5mb 82f 79f
Sun 08/17 11:00pm 11 13 mph 1014.6mb 82f 79f
10:00pm 11 13 mph 1014.6mb 82f 79f
9:00pm 11 13 mph 1014.5mb 82f 79f
8:00pm 16 18 mph 1014.2mb 82f 79f
7:00pm 11 13 mph 1013.9mb 82f 79f
6:00pm 13
mph
1013.9mb 82f 80f
5:00pm 13 16 mph 1014.2mb 82f 79f
4:00pm 13 16 mph 1014.4mb 82f 79f
3:00pm 13 16 mph 1014.6mb 82f 79f
2:00pm 13
mph
1015.4mb 82f 79f
1:00pm 13
mph
1015.8mb 82f 79f
12:00pm 11 13 mph 1016mb 82f 79f
11:00am 11 13 mph 1016.5mb 82f 78f
10:00am 13 16 mph 1016.3mb 81f 78f
9:00am 13 16 mph 1016.2mb 81f 78f
8:00am 16 18 mph 1016.1mb 81f 78f
7:00am 11 13 mph 1015.7mb 81f 78f
6:00am 9 11 mph 1015.3mb 81f 78f
5:00am 9 11 mph 1015.1mb 81f 78f
4:00am 9 11 mph 1015.2mb 81f 78f
3:00am 11
mph
1015.3mb 81f 78f
2:00am 9 11 mph 1015.4mb 81f 78f
1:00am 11
mph
1015.8mb 81f 78f
12:00am 9 11 mph 1016.4mb 81f 78f
Sat 08/16 11:00pm 9 11 mph 1016.7mb 81f 78f
10:00pm 11 16 mph 1016.9mb 81f 78f
9:00pm 11 13 mph 1016.6mb 81f 78f
8:00pm 13 16 mph 1016.2mb 82f 78f